Terminal Aerodrome Forecast
Issued by NWS

Home | Current Version | Previous Version | Text Only | Print | Product List | Glossary On
Versions: 1 2 3 4 5 6 7 8 9 10 11 12 13 14 15 16 17 18 19 20 21 22 23 24 25 26 27
000
FTUS43 KDLH 230540
TAFHYR
TAF
KHYR 230540Z 2306/2406 07005KT 1SM -SN BR OVC018
     FM230700 VRB03KT 1/2SM SN OVC020
     FM230900 VRB03KT 1/2SM SN OVC025
     FM231100 00000KT 1SM -SN OVC015
     FM231400 00000KT P6SM VCSH OVC003
     FM231500 VRB03KT P6SM OVC008
     FM240000 27004KT P6SM SCT025=

USA.gov is the U.S. government's official web portal to all federal, state and local government web resources and services.